createdAt,value
2023-03-16T00:00:01.962Z,40.28
2023-03-16T00:01:26.872Z,39.35
2023-03-16T00:02:49.432Z,41.55
2023-03-16T00:04:10.956Z,33.22
2023-03-16T00:05:33.435Z,35.55
2023-03-16T00:06:54.773Z,34.13
2023-03-16T00:08:20.327Z,33.67
2023-03-16T00:09:42.138Z,35.05
2023-03-16T00:11:04.850Z,36.38
2023-03-16T00:12:27.533Z,35.33
2023-03-16T00:13:55.161Z,37.65
2023-03-16T00:15:16.413Z,39.85
2023-03-16T00:16:38.403Z,29.70
2023-03-16T00:17:59.604Z,37.15
2023-03-16T00:19:23.118Z,39.08
2023-03-16T00:20:43.984Z,30.70
2023-03-16T00:22:06.492Z,28.95
2023-03-16T00:23:27.665Z,30.35
2023-03-16T00:24:50.037Z,31.80
2023-03-16T00:27:35.812Z,36.05
2023-03-16T00:28:58.019Z,29.98
2023-03-16T00:30:19.087Z,38.03
2023-03-16T00:31:44.306Z,40.30
2023-03-16T00:33:06.978Z,40.40
2023-03-16T00:34:30.158Z,26.42
2023-03-16T00:36:02.441Z,33.35
2023-03-16T00:38:50.686Z,28.00
2023-03-16T00:40:14.185Z,34.20
2023-03-16T00:41:38.257Z,28.30
2023-03-16T00:43:02.135Z,29.48
2023-03-16T00:44:24.541Z,32.13
2023-03-16T00:45:46.692Z,29.05
2023-03-16T00:47:10.360Z,29.95
2023-03-16T00:48:35.013Z,28.08
2023-03-16T00:50:01.185Z,29.20
2023-03-16T00:51:23.105Z,27.83
2023-03-16T00:52:46.450Z,23.98
2023-03-16T00:54:07.685Z,30.92
2023-03-16T00:55:30.373Z,26.48
2023-03-16T00:56:51.664Z,33.30
2023-03-16T00:58:16.909Z,30.33
2023-03-16T00:59:38.502Z,31.55
2023-03-16T01:01:02.415Z,27.70
2023-03-16T01:02:24.812Z,31.33
2023-03-16T01:03:47.034Z,29.02
2023-03-16T01:06:30.429Z,28.30
2023-03-16T01:07:52.748Z,29.05
2023-03-16T01:11:58.500Z,24.45
2023-03-16T01:13:22.670Z,33.85
2023-03-16T01:14:46.188Z,24.02
2023-03-16T01:16:09.607Z,28.30
2023-03-16T01:17:35.026Z,33.97
2023-03-16T01:18:57.793Z,24.40
2023-03-16T01:20:20.692Z,27.35
2023-03-16T01:21:42.715Z,25.73
2023-03-16T01:23:05.894Z,26.17
2023-03-16T01:24:28.037Z,27.48
2023-03-16T01:25:53.289Z,34.85
2023-03-16T01:27:16.147Z,26.63
2023-03-16T01:28:40.153Z,25.30
2023-03-16T01:30:02.440Z,24.55
2023-03-16T01:31:25.269Z,23.33
2023-03-16T01:32:46.616Z,29.20
2023-03-16T01:35:32.036Z,29.53
2023-03-16T01:36:55.200Z,30.38
2023-03-16T01:38:25.230Z,29.90
2023-03-16T01:39:46.473Z,23.83
2023-03-16T01:41:10.107Z,22.73
2023-03-16T01:42:31.574Z,25.67
2023-03-16T01:43:58.474Z,24.92
2023-03-16T01:46:09.204Z,27.13
2023-03-16T01:49:07.136Z,30.35
2023-03-16T01:50:30.279Z,26.92
2023-03-16T01:51:56.532Z,20.02
2023-03-16T01:53:21.264Z,21.10
2023-03-16T01:54:48.924Z,19.25
2023-03-16T01:56:11.703Z,25.65
2023-03-16T01:57:42.758Z,22.67
2023-03-16T01:59:12.029Z,23.23
2023-03-16T02:00:34.694Z,29.38
2023-03-16T02:02:17.004Z,22.70
2023-03-16T02:03:38.565Z,22.73
2023-03-16T02:05:16.961Z,30.52
2023-03-16T02:06:38.889Z,21.77
2023-03-16T02:08:13.098Z,21.48
2023-03-16T02:09:39.850Z,21.17
2023-03-16T02:11:01.557Z,18.10
2023-03-16T02:12:36.973Z,18.42
2023-03-16T02:14:05.345Z,21.35
2023-03-16T02:15:29.210Z,21.17
2023-03-16T02:16:51.932Z,24.60
2023-03-16T02:18:15.679Z,19.70
2023-03-16T02:19:50.044Z,21.55
2023-03-16T02:21:18.667Z,18.35
2023-03-16T02:22:44.853Z,21.17
2023-03-16T02:24:06.594Z,23.27
2023-03-16T02:25:38.421Z,22.23
2023-03-16T02:27:04.837Z,21.02
2023-03-16T02:28:37.310Z,24.83
2023-03-16T02:30:07.930Z,25.70
2023-03-16T02:31:37.137Z,23.02
2023-03-16T02:33:01.676Z,22.15
2023-03-16T02:34:24.745Z,19.25
2023-03-16T02:35:47.372Z,23.13
2023-03-16T02:37:10.070Z,19.38
2023-03-16T02:38:32.751Z,17.42
2023-03-16T02:39:54.832Z,22.30
2023-03-16T02:41:20.133Z,20.70
2023-03-16T02:42:54.886Z,20.88
2023-03-16T02:44:24.404Z,19.73
2023-03-16T02:45:52.943Z,16.90
2023-03-16T02:47:26.110Z,19.77
2023-03-16T02:48:52.655Z,20.25
2023-03-16T02:50:16.049Z,17.38
2023-03-16T02:51:37.036Z,23.27
2023-03-16T02:52:59.120Z,23.23
2023-03-16T02:54:20.658Z,22.45
2023-03-16T02:55:42.481Z,19.10
2023-03-16T02:58:32.112Z,17.08
2023-03-16T02:59:57.152Z,25.30
2023-03-16T03:01:19.957Z,23.80
2023-03-16T03:02:42.089Z,22.25
2023-03-16T03:04:04.879Z,18.88
2023-03-16T03:05:26.370Z,21.40
2023-03-16T03:06:48.722Z,20.25
2023-03-16T03:09:32.414Z,21.10
2023-03-16T03:10:54.514Z,18.35
2023-03-16T03:12:15.647Z,22.95
2023-03-16T03:13:39.316Z,20.15
2023-03-16T03:15:08.373Z,17.17
2023-03-16T03:16:40.814Z,16.85
2023-03-16T03:18:04.259Z,21.55
2023-03-16T03:19:27.653Z,17.42
2023-03-16T03:22:12.315Z,20.50
2023-03-16T03:23:35.092Z,23.25
2023-03-16T03:24:57.833Z,18.85
2023-03-16T03:26:20.215Z,17.90
2023-03-16T03:27:43.197Z,17.42
2023-03-16T03:29:08.558Z,21.27
2023-03-16T03:30:30.048Z,17.48
2023-03-16T03:31:53.823Z,22.13
2023-03-16T03:33:14.639Z,19.92
2023-03-16T03:34:36.845Z,18.23
2023-03-16T03:36:00.339Z,16.23
2023-03-16T03:37:27.310Z,18.75
2023-03-16T03:38:49.845Z,15.35
2023-03-16T03:40:16.221Z,18.52
2023-03-16T03:41:41.231Z,15.68
2023-03-16T03:43:04.624Z,18.88
2023-03-16T03:44:28.988Z,17.75
2023-03-16T03:45:51.468Z,20.02
2023-03-16T03:47:14.073Z,16.50
2023-03-16T03:48:36.165Z,21.73
2023-03-16T03:49:57.534Z,18.67
2023-03-16T03:51:19.785Z,17.17
2023-03-16T03:53:04.496Z,15.85
2023-03-16T03:54:32.034Z,16.27
2023-03-16T03:55:58.533Z,17.65
2023-03-16T03:58:45.313Z,12.77
2023-03-16T04:00:13.673Z,15.60
2023-03-16T04:01:34.817Z,20.35
2023-03-16T04:02:58.880Z,17.73
2023-03-16T04:04:28.386Z,18.27
2023-03-16T04:07:16.249Z,18.57
2023-03-16T04:08:39.948Z,17.52
2023-03-16T04:10:06.231Z,15.77
2023-03-16T04:11:32.986Z,15.32
2023-03-16T04:12:55.428Z,14.88
2023-03-16T04:14:16.832Z,15.93
2023-03-16T04:15:40.130Z,14.90
2023-03-16T04:17:14.800Z,16.52
2023-03-16T04:18:39.599Z,14.15
2023-03-16T04:20:02.611Z,15.93
2023-03-16T04:21:27.293Z,14.82
2023-03-16T04:22:49.131Z,13.18
2023-03-16T04:24:14.932Z,18.15
2023-03-16T04:25:38.924Z,16.45
2023-03-16T04:27:03.246Z,16.70
2023-03-16T04:28:27.308Z,14.40
2023-03-16T04:29:48.545Z,15.85
2023-03-16T04:31:14.716Z,17.17
2023-03-16T04:32:46.076Z,13.45
2023-03-16T04:34:19.025Z,15.02
2023-03-16T04:35:42.190Z,19.85
2023-03-16T04:37:10.943Z,12.98
2023-03-16T04:38:40.561Z,16.27
2023-03-16T04:40:13.792Z,18.77
2023-03-16T04:41:51.703Z,14.35
2023-03-16T04:43:23.098Z,14.02
2023-03-16T04:44:57.346Z,16.38
2023-03-16T04:46:20.316Z,16.08
2023-03-16T04:47:42.142Z,16.15
2023-03-16T04:50:28.076Z,16.90
2023-03-16T04:51:49.785Z,20.60
2023-03-16T04:53:14.762Z,14.50
2023-03-16T04:54:37.974Z,15.50
2023-03-16T04:56:00.664Z,16.00
2023-03-16T04:57:21.786Z,17.70
2023-03-16T04:58:48.065Z,22.90
2023-03-16T05:00:12.058Z,15.23
2023-03-16T05:01:41.362Z,14.95
2023-03-16T05:04:27.508Z,18.20
2023-03-16T05:05:51.095Z,16.27
2023-03-16T05:07:13.864Z,14.40
2023-03-16T05:08:40.822Z,17.98
2023-03-16T05:10:02.799Z,14.55
2023-03-16T05:11:25.405Z,18.92
2023-03-16T05:12:51.834Z,13.75
2023-03-16T05:14:13.760Z,15.52
2023-03-16T05:15:49.848Z,17.58
2023-03-16T05:17:16.862Z,20.00
2023-03-16T05:18:40.788Z,15.88
2023-03-16T05:20:02.438Z,15.40
2023-03-16T05:21:37.775Z,16.55
2023-03-16T05:23:02.254Z,14.30
2023-03-16T05:24:28.131Z,15.30
2023-03-16T05:25:51.232Z,15.30
2023-03-16T05:27:16.524Z,16.25
2023-03-16T05:28:38.788Z,12.55
2023-03-16T05:30:08.388Z,18.38
2023-03-16T05:31:33.525Z,16.77
2023-03-16T05:32:58.430Z,17.48
2023-03-16T05:34:21.818Z,19.38
2023-03-16T05:35:44.355Z,15.90
2023-03-16T05:37:09.832Z,15.70
2023-03-16T05:38:33.190Z,18.45
2023-03-16T05:39:57.733Z,17.33
2023-03-16T05:41:21.601Z,17.15
2023-03-16T05:43:04.617Z,14.50
2023-03-16T05:44:30.198Z,12.68
2023-03-16T05:46:04.748Z,14.93
2023-03-16T05:47:27.412Z,12.95
2023-03-16T05:48:52.580Z,15.48
2023-03-16T05:50:18.179Z,14.38
2023-03-16T05:51:40.798Z,12.88
2023-03-16T05:53:04.687Z,13.10
2023-03-16T05:54:25.960Z,14.68
2023-03-16T05:55:58.113Z,18.05
2023-03-16T05:57:19.308Z,14.90
2023-03-16T05:58:44.171Z,15.00
2023-03-16T06:00:12.439Z,19.90
2023-03-16T06:01:35.236Z,15.75
2023-03-16T06:02:57.556Z,15.25
2023-03-16T06:04:24.957Z,18.48
2023-03-16T06:05:45.983Z,16.27
2023-03-16T06:07:09.761Z,15.07
2023-03-16T06:08:33.520Z,13.43
2023-03-16T06:10:02.965Z,14.00
2023-03-16T06:11:25.924Z,18.92
2023-03-16T06:12:48.226Z,18.27
2023-03-16T06:14:09.440Z,14.48
2023-03-16T06:15:32.298Z,16.63
2023-03-16T06:16:57.555Z,20.95
2023-03-16T06:18:19.656Z,14.85
2023-03-16T06:19:41.935Z,16.98
2023-03-16T06:21:04.143Z,18.08
2023-03-16T06:22:30.338Z,18.92
2023-03-16T06:23:54.555Z,26.25
2023-03-16T06:25:17.795Z,22.75
2023-03-16T06:26:41.325Z,22.00
2023-03-16T06:28:07.306Z,13.40
2023-03-16T06:29:29.836Z,13.10
2023-03-16T06:30:55.372Z,17.63
2023-03-16T06:32:19.413Z,12.73
2023-03-16T06:33:41.678Z,16.95
2023-03-16T06:35:04.217Z,14.98
2023-03-16T06:36:26.254Z,18.65
2023-03-16T06:37:51.770Z,14.45
2023-03-16T06:39:47.800Z,17.77
2023-03-16T06:41:13.024Z,13.77
2023-03-16T06:42:35.111Z,14.68
2023-03-16T06:43:58.268Z,15.75
2023-03-16T06:45:22.332Z,16.42
2023-03-16T06:46:45.305Z,16.23
2023-03-16T06:48:10.003Z,20.15
2023-03-16T06:49:32.578Z,18.10
2023-03-16T06:50:56.372Z,15.02
2023-03-16T06:52:24.074Z,12.90
2023-03-16T06:53:46.412Z,15.52
2023-03-16T06:55:10.452Z,17.42
2023-03-16T06:56:34.517Z,14.85
2023-03-16T06:57:57.049Z,14.05
2023-03-16T06:59:18.818Z,15.65
2023-03-16T07:00:42.014Z,17.27
2023-03-16T07:02:07.136Z,18.75
2023-03-16T07:03:29.262Z,17.52
2023-03-16T07:04:56.856Z,14.18
2023-03-16T07:06:19.770Z,14.98
2023-03-16T07:09:05.728Z,14.05
2023-03-16T07:10:30.533Z,11.07
2023-03-16T07:11:53.218Z,16.55
2023-03-16T07:13:15.639Z,17.73
2023-03-16T07:14:38.667Z,15.15
2023-03-16T07:16:01.225Z,18.45
2023-03-16T07:17:28.235Z,15.27
2023-03-16T07:18:50.873Z,15.35
2023-03-16T07:20:22.834Z,17.27
2023-03-16T07:21:45.813Z,14.80
2023-03-16T07:23:12.619Z,19.35
2023-03-16T07:24:36.126Z,11.07
2023-03-16T07:26:00.055Z,17.33
2023-03-16T07:27:23.414Z,13.90
2023-03-16T07:28:46.913Z,15.60
2023-03-16T07:30:12.279Z,20.90
2023-03-16T07:31:36.011Z,19.52
2023-03-16T07:33:03.505Z,14.18
2023-03-16T07:34:26.313Z,15.85
2023-03-16T07:35:52.239Z,14.60
2023-03-16T07:37:17.210Z,13.20
2023-03-16T07:38:42.684Z,17.88
2023-03-16T07:40:09.389Z,18.67
2023-03-16T07:41:33.954Z,13.30
2023-03-16T07:43:26.490Z,16.58
2023-03-16T07:44:52.164Z,21.42
2023-03-16T07:46:14.816Z,12.18
2023-03-16T07:47:37.510Z,14.88
2023-03-16T07:49:09.829Z,18.85
2023-03-16T07:50:36.626Z,16.02
2023-03-16T07:51:59.196Z,20.40
2023-03-16T07:53:29.737Z,15.57
2023-03-16T07:55:21.243Z,15.30
2023-03-16T07:56:49.565Z,19.45
2023-03-16T07:58:43.590Z,13.30
2023-03-16T08:00:07.439Z,11.73
2023-03-16T08:01:34.698Z,13.55
2023-03-16T08:02:57.770Z,16.73
2023-03-16T08:04:20.120Z,16.90
2023-03-16T08:05:43.062Z,14.05
2023-03-16T08:07:15.359Z,13.40
2023-03-16T08:08:47.967Z,16.00
2023-03-16T08:10:18.264Z,18.88
2023-03-16T08:11:48.349Z,15.48
2023-03-16T08:13:12.442Z,13.30
2023-03-16T08:14:37.840Z,10.80
2023-03-16T08:16:10.539Z,11.02
2023-03-16T08:17:35.101Z,14.80
2023-03-16T08:18:59.849Z,17.35
2023-03-16T08:20:22.188Z,12.13
2023-03-16T08:22:00.411Z,18.95
2023-03-16T08:23:32.527Z,15.18
2023-03-16T08:24:58.308Z,12.32
2023-03-16T08:26:22.044Z,17.38
2023-03-16T08:27:51.378Z,22.80
2023-03-16T08:29:13.654Z,21.73
2023-03-16T08:30:39.286Z,16.48
2023-03-16T08:32:14.732Z,13.40
2023-03-16T08:33:39.971Z,10.95
2023-03-16T08:35:04.057Z,14.63
2023-03-16T08:36:27.925Z,13.95
2023-03-16T08:37:51.827Z,12.30
2023-03-16T08:39:14.085Z,11.98
2023-03-16T08:40:47.082Z,13.05
2023-03-16T08:42:09.503Z,13.27
2023-03-16T08:43:40.326Z,9.85
2023-03-16T08:45:12.334Z,11.88
2023-03-16T08:46:39.551Z,9.35
2023-03-16T08:48:02.913Z,11.40
2023-03-16T08:49:25.834Z,11.75
2023-03-16T08:50:58.470Z,9.27
2023-03-16T08:52:19.799Z,11.27
2023-03-16T08:53:42.054Z,9.45
2023-03-16T08:55:05.822Z,12.00
2023-03-16T08:56:29.132Z,9.98
2023-03-16T08:57:51.455Z,9.93
2023-03-16T08:59:27.378Z,10.95
2023-03-16T09:00:52.157Z,7.00
2023-03-16T09:02:15.462Z,8.40
2023-03-16T09:03:37.938Z,7.50
2023-03-16T09:04:59.826Z,15.63
2023-03-16T09:06:22.607Z,9.77
2023-03-16T09:07:44.689Z,9.07
2023-03-16T09:09:06.863Z,8.35
2023-03-16T09:10:30.329Z,9.63
2023-03-16T09:11:52.896Z,8.70
2023-03-16T09:13:16.473Z,12.23
2023-03-16T09:14:40.434Z,9.18
2023-03-16T09:16:03.310Z,7.93
2023-03-16T09:17:28.716Z,8.27
2023-03-16T09:18:51.700Z,9.80
2023-03-16T09:20:22.295Z,11.70
2023-03-16T09:21:48.254Z,9.35
2023-03-16T09:23:10.824Z,8.02
2023-03-16T09:24:32.870Z,14.30
2023-03-16T09:25:59.481Z,9.93
2023-03-16T09:27:22.723Z,8.10
2023-03-16T09:28:44.790Z,10.05
2023-03-16T09:30:10.578Z,6.97
2023-03-16T09:31:33.212Z,8.52
2023-03-16T09:35:34.345Z,7.90
2023-03-16T09:37:00.157Z,8.43
2023-03-16T09:38:23.473Z,7.93
2023-03-16T09:39:48.583Z,8.27
2023-03-16T09:41:17.383Z,9.13
2023-03-16T09:42:55.242Z,8.43
2023-03-16T09:44:29.770Z,9.88
2023-03-16T09:46:04.701Z,5.35
2023-03-16T09:47:30.688Z,12.07
2023-03-16T09:48:53.622Z,9.52
2023-03-16T09:50:24.324Z,7.03
2023-03-16T09:51:53.292Z,6.25
2023-03-16T09:53:25.077Z,11.13
2023-03-16T09:54:50.875Z,9.45
2023-03-16T09:56:18.425Z,8.82
2023-03-16T09:57:45.056Z,7.30
2023-03-16T09:59:15.894Z,10.40
2023-03-16T10:00:43.694Z,6.38
2023-03-16T10:02:31.730Z,7.93
2023-03-16T10:04:03.833Z,11.20
2023-03-16T10:07:02.108Z,7.25
2023-03-16T10:08:29.861Z,11.65
2023-03-16T10:09:59.093Z,7.75
2023-03-16T10:11:38.505Z,7.03
2023-03-16T10:13:19.095Z,6.85
2023-03-16T10:14:50.340Z,7.00
2023-03-16T10:16:20.950Z,7.40
2023-03-16T10:17:50.212Z,8.20
2023-03-16T10:19:19.891Z,10.80
2023-03-16T10:20:43.815Z,9.50
2023-03-16T10:22:20.001Z,10.40
2023-03-16T10:23:42.461Z,7.47
2023-03-16T10:25:13.055Z,9.13
2023-03-16T10:26:41.026Z,10.32
2023-03-16T10:28:06.450Z,10.13
2023-03-16T10:29:36.370Z,14.32
2023-03-16T10:31:01.855Z,10.38
2023-03-16T10:32:29.390Z,11.00
2023-03-16T10:33:59.648Z,7.95
2023-03-16T10:35:36.222Z,9.18
2023-03-16T10:36:58.552Z,13.68
2023-03-16T10:38:33.349Z,10.07
2023-03-16T10:39:56.648Z,7.82
2023-03-16T10:41:25.714Z,13.32
2023-03-16T10:42:49.019Z,10.65
2023-03-16T10:44:13.242Z,11.55
2023-03-16T10:45:38.225Z,11.98
2023-03-16T10:47:04.532Z,6.82
2023-03-16T10:48:28.500Z,7.32
2023-03-16T10:49:53.591Z,11.25
2023-03-16T10:51:18.868Z,7.13
2023-03-16T10:52:44.820Z,8.10
2023-03-16T10:54:14.424Z,5.88
2023-03-16T10:55:45.836Z,10.85
2023-03-16T10:57:22.777Z,7.57
2023-03-16T10:58:46.338Z,9.68
2023-03-16T11:00:21.084Z,6.80
2023-03-16T11:01:49.045Z,9.63
2023-03-16T11:03:28.042Z,11.20
2023-03-16T11:04:53.318Z,10.30
2023-03-16T11:06:22.739Z,6.78
2023-03-16T11:07:52.563Z,6.65
2023-03-16T11:09:21.051Z,8.60
2023-03-16T11:10:55.293Z,11.13
2023-03-16T11:12:25.869Z,9.15
2023-03-16T11:13:49.173Z,10.43
2023-03-16T11:15:25.339Z,8.63
2023-03-16T11:16:52.151Z,7.90
2023-03-16T11:18:27.333Z,7.65
2023-03-16T11:19:55.082Z,7.53
2023-03-16T11:21:22.385Z,9.20
2023-03-16T11:22:47.339Z,6.93
2023-03-16T11:24:20.121Z,7.55
2023-03-16T11:25:47.913Z,8.35
2023-03-16T11:27:20.352Z,7.90
2023-03-16T11:30:15.294Z,10.50
2023-03-16T11:31:46.236Z,8.15
2023-03-16T11:33:11.429Z,9.05
2023-03-16T11:34:35.486Z,10.88
2023-03-16T11:36:10.245Z,4.57
2023-03-16T11:37:49.827Z,13.20
2023-03-16T11:39:23.611Z,9.38
2023-03-16T11:40:59.552Z,6.05
2023-03-16T11:42:31.478Z,4.15
2023-03-16T11:43:53.764Z,10.15
2023-03-16T11:45:24.249Z,8.32
2023-03-16T11:46:53.500Z,11.27
2023-03-16T11:48:29.321Z,4.50
2023-03-16T11:50:02.753Z,13.45
2023-03-16T11:51:38.068Z,8.27
2023-03-16T11:53:08.907Z,8.43
2023-03-16T11:54:48.973Z,6.47
2023-03-16T11:56:21.972Z,7.90
2023-03-16T11:57:55.237Z,6.18
2023-03-16T12:00:01.167Z,5.88
2023-03-16T12:01:31.546Z,8.40
2023-03-16T12:03:12.732Z,5.85
2023-03-16T12:04:49.475Z,7.10
2023-03-16T12:06:25.107Z,7.25
2023-03-16T12:07:59.511Z,7.85
2023-03-16T12:09:52.524Z,7.95
2023-03-16T12:11:24.208Z,11.85
2023-03-16T12:13:02.000Z,10.13
2023-03-16T12:14:28.532Z,11.82
2023-03-16T12:15:53.713Z,11.00
2023-03-16T12:17:21.293Z,7.50
2023-03-16T12:18:48.996Z,9.52
2023-03-16T12:20:18.664Z,9.27
2023-03-16T12:21:44.822Z,11.55
2023-03-16T12:23:15.937Z,9.93
2023-03-16T12:24:47.214Z,7.03
2023-03-16T12:26:13.334Z,6.72
2023-03-16T12:27:41.383Z,6.80
2023-03-16T12:29:09.970Z,8.93
2023-03-16T12:30:45.901Z,7.75
2023-03-16T12:32:13.626Z,7.32
2023-03-16T12:33:47.977Z,12.52
2023-03-16T12:35:25.624Z,12.38
2023-03-16T12:37:07.339Z,7.80
2023-03-16T12:38:47.638Z,9.65
2023-03-16T12:40:24.751Z,10.13
2023-03-16T12:42:01.462Z,10.00
2023-03-16T12:43:39.559Z,12.85
2023-03-16T12:45:04.839Z,7.60
2023-03-16T12:46:33.841Z,6.60
2023-03-16T12:48:04.353Z,7.95
2023-03-16T12:49:33.847Z,7.60
2023-03-16T12:50:58.029Z,7.53
2023-03-16T12:52:23.346Z,6.80
2023-03-16T12:53:54.854Z,7.43
2023-03-16T12:55:19.564Z,9.30
2023-03-16T12:56:47.681Z,6.97
2023-03-16T12:58:09.858Z,6.90
2023-03-16T12:59:41.706Z,7.80
2023-03-16T13:01:06.118Z,7.88
2023-03-16T13:02:32.807Z,7.32
2023-03-16T13:04:03.030Z,9.07
2023-03-16T13:05:32.988Z,6.13
2023-03-16T13:07:05.213Z,9.20
2023-03-16T13:08:27.877Z,9.82
2023-03-16T13:09:55.278Z,5.60
2023-03-16T13:11:17.833Z,8.82
2023-03-16T13:12:42.010Z,7.43
2023-03-16T13:14:12.182Z,10.52
2023-03-16T13:15:37.171Z,6.75
2023-03-16T13:17:30.993Z,6.53
2023-03-16T13:19:00.371Z,9.10
2023-03-16T13:20:31.600Z,8.20
2023-03-16T13:22:08.478Z,7.45
2023-03-16T13:23:50.571Z,9.35
2023-03-16T13:25:22.724Z,5.75
2023-03-16T13:26:49.075Z,7.15
2023-03-16T13:28:20.508Z,9.63
2023-03-16T13:29:53.767Z,9.53
2023-03-16T13:31:39.326Z,6.90
2023-03-16T13:33:09.129Z,5.25
2023-03-16T13:34:33.981Z,10.20
2023-03-16T13:36:05.360Z,6.05
2023-03-16T13:37:37.509Z,14.35
2023-03-16T13:39:09.817Z,8.07
2023-03-16T13:42:20.453Z,8.15
2023-03-16T13:43:45.199Z,9.32
2023-03-16T13:45:22.692Z,8.95
2023-03-16T13:47:33.092Z,8.85
2023-03-16T13:48:56.982Z,8.43
2023-03-16T13:50:31.543Z,8.88
2023-03-16T13:52:29.329Z,10.43
2023-03-16T13:54:26.026Z,8.00
2023-03-16T13:55:50.398Z,10.98
2023-03-16T13:57:24.081Z,8.23
2023-03-16T13:58:54.094Z,7.15
2023-03-16T14:00:22.076Z,6.03
2023-03-16T14:01:49.937Z,8.48
2023-03-16T14:03:17.883Z,8.82
2023-03-16T14:04:43.012Z,10.88
2023-03-16T14:06:07.263Z,5.68
2023-03-16T14:07:29.781Z,7.57
2023-03-16T14:08:55.349Z,6.40
2023-03-16T14:10:18.097Z,4.95
2023-03-16T14:11:42.977Z,7.20
2023-03-16T14:13:11.080Z,12.15
2023-03-16T14:14:39.400Z,13.18
2023-03-16T14:16:13.586Z,15.63
2023-03-16T14:17:36.471Z,7.57
2023-03-16T14:19:04.399Z,10.60
2023-03-16T14:20:27.318Z,9.35
2023-03-16T14:21:50.257Z,9.43
2023-03-16T14:23:24.741Z,6.32
2023-03-16T14:24:53.079Z,7.82
2023-03-16T14:26:18.991Z,6.05
2023-03-16T14:27:47.691Z,7.05
2023-03-16T14:29:19.736Z,7.50
2023-03-16T14:30:52.107Z,5.82
2023-03-16T14:32:28.594Z,7.40
2023-03-16T14:34:02.597Z,9.60
2023-03-16T14:35:28.573Z,10.35
2023-03-16T14:36:50.399Z,10.48
2023-03-16T14:38:23.639Z,5.72
2023-03-16T14:39:47.212Z,6.15
2023-03-16T14:41:22.971Z,5.53
2023-03-16T14:42:46.182Z,8.68
2023-03-16T14:44:21.304Z,6.65
2023-03-16T14:45:43.793Z,7.57
2023-03-16T14:47:07.305Z,8.65
2023-03-16T14:48:30.454Z,7.78
2023-03-16T14:49:53.423Z,9.30
2023-03-16T14:51:16.548Z,7.80
2023-03-16T14:52:37.961Z,5.68
2023-03-16T14:54:03.931Z,13.80
2023-03-16T14:55:26.100Z,7.15
2023-03-16T14:56:50.894Z,8.35
2023-03-16T14:58:14.346Z,7.53
2023-03-16T14:59:36.670Z,8.02
2023-03-16T15:00:59.664Z,7.95
2023-03-16T15:02:28.074Z,11.63
2023-03-16T15:03:50.567Z,10.18
2023-03-16T15:05:23.720Z,9.23
2023-03-16T15:06:47.405Z,11.25
2023-03-16T15:08:18.359Z,10.30
2023-03-16T15:09:43.612Z,7.40
2023-03-16T15:11:08.306Z,7.57
2023-03-16T15:12:31.087Z,10.27
2023-03-16T15:14:04.297Z,4.03
2023-03-16T15:15:28.706Z,7.90
2023-03-16T15:17:03.087Z,9.60
2023-03-16T15:18:25.479Z,7.60
2023-03-16T15:19:47.582Z,7.20
2023-03-16T15:21:13.585Z,6.00
2023-03-16T15:22:39.512Z,6.82
2023-03-16T15:24:02.022Z,7.45
2023-03-16T15:25:29.865Z,9.80
2023-03-16T15:27:00.419Z,6.28
2023-03-16T15:28:24.530Z,6.43
2023-03-16T15:29:48.566Z,4.97
2023-03-16T15:31:14.749Z,6.85
2023-03-16T15:32:36.573Z,6.78
2023-03-16T15:33:59.639Z,6.20
2023-03-16T15:35:21.542Z,11.70
2023-03-16T15:36:44.036Z,6.22
2023-03-16T15:38:09.597Z,8.60
2023-03-16T15:39:32.266Z,7.32
2023-03-16T15:40:55.320Z,7.53
2023-03-16T15:42:19.184Z,5.20
2023-03-16T15:43:41.625Z,6.60
2023-03-16T15:45:12.358Z,7.18
2023-03-16T15:46:35.144Z,7.50
2023-03-16T15:47:57.582Z,9.55
2023-03-16T15:49:19.630Z,5.90
2023-03-16T15:50:45.948Z,5.65
2023-03-16T15:52:19.373Z,7.18
2023-03-16T15:53:45.199Z,8.57
2023-03-16T15:55:08.617Z,9.85
2023-03-16T15:56:47.321Z,8.73
2023-03-16T15:58:21.094Z,9.55
2023-03-16T15:59:43.435Z,8.77
2023-03-16T16:01:09.196Z,8.68
2023-03-16T16:02:33.356Z,8.88
2023-03-16T16:03:56.762Z,23.15
2023-03-16T16:05:19.224Z,11.55
2023-03-16T16:06:41.436Z,9.27
2023-03-16T16:08:03.762Z,7.25
2023-03-16T16:09:26.016Z,12.95
2023-03-16T16:10:50.388Z,8.50
2023-03-16T16:12:15.258Z,13.50
2023-03-16T16:13:44.731Z,10.50
2023-03-16T16:15:20.222Z,10.43
2023-03-16T16:16:46.229Z,7.95
2023-03-16T16:18:26.733Z,7.38
2023-03-16T16:19:49.387Z,7.03
2023-03-16T16:21:23.101Z,10.43
2023-03-16T16:22:47.444Z,5.72
2023-03-16T16:24:11.005Z,7.75
2023-03-16T16:25:38.192Z,10.32
2023-03-16T16:27:00.861Z,12.80
2023-03-16T16:28:24.938Z,25.17
2023-03-16T16:29:46.894Z,9.95
2023-03-16T16:31:15.019Z,11.93
2023-03-16T16:32:40.041Z,11.45
2023-03-16T16:34:02.989Z,7.30
2023-03-16T16:35:30.024Z,13.45
2023-03-16T16:36:52.431Z,6.47
2023-03-16T16:38:17.710Z,6.97
2023-03-16T16:39:39.711Z,14.30
2023-03-16T16:41:04.660Z,9.55
2023-03-16T16:42:27.130Z,10.07
2023-03-16T16:43:52.508Z,14.73
2023-03-16T16:45:20.430Z,9.02
2023-03-16T16:46:44.376Z,6.40
2023-03-16T16:48:26.839Z,10.15
2023-03-16T16:49:49.647Z,10.00
2023-03-16T16:51:18.820Z,8.00
2023-03-16T16:52:41.156Z,13.48
2023-03-16T16:54:05.047Z,12.40
2023-03-16T16:55:27.798Z,8.65
2023-03-16T16:56:51.659Z,10.18
2023-03-16T16:58:23.910Z,8.95
2023-03-16T16:59:49.989Z,12.10
2023-03-16T17:01:16.787Z,10.98
2023-03-16T17:02:46.288Z,9.57
2023-03-16T17:04:16.205Z,8.80
2023-03-16T17:05:38.881Z,15.90
2023-03-16T17:07:03.684Z,14.02
2023-03-16T17:08:27.217Z,8.65
2023-03-16T17:09:55.612Z,15.70
2023-03-16T17:11:22.929Z,12.00
2023-03-16T17:12:46.744Z,15.95
2023-03-16T17:14:10.762Z,13.43
2023-03-16T17:15:44.917Z,14.38
2023-03-16T17:17:20.959Z,16.80
2023-03-16T17:18:47.041Z,12.02
2023-03-16T17:20:20.355Z,20.70
2023-03-16T17:21:45.923Z,24.17
2023-03-16T17:23:25.186Z,20.33
2023-03-16T17:24:48.088Z,15.45
2023-03-16T17:26:17.657Z,12.15
2023-03-16T17:27:40.141Z,17.13
2023-03-16T17:29:06.405Z,11.23
2023-03-16T17:30:31.140Z,10.63
2023-03-16T17:31:54.349Z,17.48
2023-03-16T17:33:23.942Z,13.20
2023-03-16T17:34:47.327Z,23.55
2023-03-16T17:36:13.660Z,22.63
2023-03-16T17:37:37.046Z,19.58
2023-03-16T17:39:02.285Z,23.70
2023-03-16T17:40:26.617Z,20.92
2023-03-16T17:41:50.247Z,25.02
2023-03-16T17:43:16.402Z,23.52
2023-03-16T17:44:42.387Z,17.77
2023-03-16T17:46:17.687Z,28.52
2023-03-16T17:47:39.815Z,20.00
2023-03-16T17:49:02.641Z,24.60
2023-03-16T17:50:30.983Z,17.33
2023-03-16T17:51:55.091Z,17.50
2023-03-16T17:53:18.859Z,27.10
2023-03-16T17:54:41.436Z,23.77
2023-03-16T17:56:04.085Z,16.65
2023-03-16T17:57:32.678Z,20.42
2023-03-16T17:58:57.664Z,26.63
2023-03-16T18:00:22.769Z,19.10
2023-03-16T18:01:47.711Z,19.00
2023-03-16T18:03:17.594Z,23.75
2023-03-16T18:04:44.420Z,24.75
2023-03-16T18:06:08.471Z,20.63
2023-03-16T18:07:31.451Z,22.88
2023-03-16T18:08:58.442Z,18.27
2023-03-16T18:10:22.822Z,31.15
2023-03-16T18:11:50.921Z,20.20
2023-03-16T18:13:22.702Z,21.25
2023-03-16T18:14:45.582Z,27.30
2023-03-16T18:16:09.361Z,22.60
2023-03-16T18:17:33.155Z,24.65
2023-03-16T18:19:00.154Z,31.25
2023-03-16T18:20:24.472Z,27.65
2023-03-16T18:21:46.539Z,24.00
2023-03-16T18:23:17.926Z,26.80
2023-03-16T18:24:41.392Z,30.13
2023-03-16T18:26:04.632Z,28.02
2023-03-16T18:27:27.432Z,27.38
2023-03-16T18:28:53.634Z,29.10
2023-03-16T18:30:18.640Z,27.92
2023-03-16T18:31:41.660Z,22.23
2023-03-16T18:33:05.507Z,20.52
2023-03-16T18:34:33.826Z,26.48
2023-03-16T18:35:58.819Z,30.95
2023-03-16T18:37:24.107Z,27.80
2023-03-16T18:38:50.703Z,31.98
2023-03-16T18:40:17.893Z,28.65
2023-03-16T18:41:43.580Z,24.73
2023-03-16T18:43:08.728Z,20.27
2023-03-16T18:44:31.550Z,20.75
2023-03-16T18:45:54.945Z,22.45
2023-03-16T18:47:23.587Z,20.98
2023-03-16T18:48:52.250Z,18.95
2023-03-16T18:50:22.126Z,17.13
2023-03-16T18:51:47.047Z,15.60
2023-03-16T18:53:15.616Z,19.25
2023-03-16T18:54:39.210Z,25.35
2023-03-16T18:56:01.529Z,25.10
2023-03-16T18:58:45.949Z,27.45
2023-03-16T19:00:09.403Z,27.73
2023-03-16T19:01:32.716Z,22.23
2023-03-16T19:02:57.287Z,25.63
2023-03-16T19:04:22.028Z,26.67
2023-03-16T19:05:44.318Z,26.27
2023-03-16T19:07:10.944Z,25.10
2023-03-16T19:08:34.532Z,29.90
2023-03-16T19:09:57.987Z,28.60
2023-03-16T19:11:20.700Z,39.28
2023-03-16T19:12:42.024Z,37.58
2023-03-16T19:14:04.320Z,36.78
2023-03-16T19:15:29.456Z,36.88
2023-03-16T19:16:52.502Z,31.40
2023-03-16T19:18:13.873Z,36.75